Time;durP1;ratioP1;P1;durP2;ratioP2;P2;SDS_P1;SDS_P2;PMS_P1;PMS_P2;Temp;Humidity;BMP_temperature;BMP_pressure;BME280_temperature;BME280_humidity;BME280_pressure;Samples;Min_cycle;Max_cycle;Signal;HPM_P1;HPM_P2
2022/05/13 00:01:04;;;;;;;9.87;2.80;;;11.30;99.90;;;;;;5046483;28;20200;-65
2022/05/13 00:03:33;;;;;;;6.50;2.40;;;11.30;99.90;;;;;;5040374;28;20189;-65
2022/05/13 00:06:04;;;;;;;10.57;2.50;;;11.30;99.90;;;;;;5037848;28;20207;-65
2022/05/13 00:08:33;;;;;;;5.13;2.30;;;11.20;99.90;;;;;;5036678;28;20247;-65
2022/05/13 00:11:02;;;;;;;6.30;2.60;;;11.20;99.90;;;;;;5046627;28;20205;-65
2022/05/13 00:13:31;;;;;;;6.53;3.00;;;11.10;99.90;;;;;;5050457;28;20514;-65
2022/05/13 00:16:01;;;;;;;8.00;2.47;;;11.10;99.90;;;;;;5054166;28;20246;-65
2022/05/13 00:18:30;;;;;;;9.67;2.60;;;11.00;99.90;;;;;;5052042;28;20197;-65
2022/05/13 00:20:59;;;;;;;10.30;3.07;;;11.00;99.90;;;;;;5050395;28;20254;-65
2022/05/13 00:23:29;;;;;;;14.63;2.80;;;10.90;99.90;;;;;;5065277;28;20294;-65
2022/05/13 00:25:57;;;;;;;11.57;2.77;;;10.90;99.90;;;;;;5074773;28;20201;-65
2022/05/13 00:28:26;;;;;;;10.90;2.70;;;10.90;99.90;;;;;;5058620;28;20288;-65
2022/05/13 00:30:54;;;;;;;8.87;2.87;;;10.90;99.90;;;;;;5055306;28;20200;-65
2022/05/13 00:33:23;;;;;;;12.77;2.90;;;10.90;99.90;;;;;;5049290;28;20237;-65
2022/05/13 00:35:51;;;;;;;10.33;3.10;;;10.90;99.90;;;;;;5043325;28;20317;-65
2022/05/13 00:38:20;;;;;;;12.50;2.83;;;10.80;99.90;;;;;;5047127;28;20239;-65
2022/05/13 00:40:50;;;;;;;11.20;2.70;;;10.80;99.90;;;;;;5055146;28;20247;-65
2022/05/13 00:43:41;;;;;;;11.80;2.83;;;10.80;99.90;;;;;;5052147;28;20216;-65
2022/05/13 00:46:09;;;;;;;10.77;3.00;;;10.80;99.90;;;;;;5054730;28;20330;-64
2022/05/13 00:48:38;;;;;;;12.33;3.03;;;10.70;99.90;;;;;;5049646;28;20193;-65
2022/05/13 00:51:09;;;;;;;4.77;2.40;;;10.70;99.90;;;;;;5075117;28;20220;-65
2022/05/13 00:53:38;;;;;;;10.97;2.70;;;10.70;99.90;;;;;;5048675;28;20193;-65
2022/05/13 00:56:08;;;;;;;9.27;3.17;;;10.60;99.90;;;;;;5052072;28;20197;-65
2022/05/13 00:58:41;;;;;;;11.40;3.00;;;10.60;99.90;;;;;;5048767;28;20270;-65
2022/05/13 01:01:10;;;;;;;10.53;2.90;;;10.60;99.90;;;;;;5048127;28;20193;-65
2022/05/13 01:03:38;;;;;;;13.10;3.40;;;10.50;99.90;;;;;;5048218;28;20938;-64
2022/05/13 01:06:13;;;;;;;6.33;2.70;;;10.50;99.90;;;;;;5052410;28;20287;-65
2022/05/13 01:08:42;;;;;;;8.57;3.23;;;10.50;99.90;;;;;;5050082;28;20192;-65
2022/05/13 01:11:16;;;;;;;7.57;2.93;;;10.50;99.90;;;;;;5052346;28;20212;-64
2022/05/13 01:13:47;;;;;;;13.97;3.40;;;10.50;99.90;;;;;;5041536;28;20602;-64
2022/05/13 01:16:16;;;;;;;15.63;2.87;;;10.60;99.90;;;;;;5054655;28;20544;-65
2022/05/13 01:18:44;;;;;;;7.97;2.60;;;10.60;99.90;;;;;;5080878;28;20204;-65
2022/05/13 01:21:19;;;;;;;7.97;2.80;;;10.60;99.90;;;;;;5050112;28;20847;-65
2022/05/13 01:23:50;;;;;;;13.70;3.13;;;10.60;99.90;;;;;;5056119;28;20250;-65
2022/05/13 01:26:25;;;;;;;6.53;2.50;;;10.70;99.90;;;;;;5049958;28;20220;-65
2022/05/13 01:28:56;;;;;;;11.67;3.17;;;10.60;99.90;;;;;;5077206;28;20210;-65
2022/05/13 01:31:26;;;;;;;10.83;3.13;;;10.60;99.90;;;;;;5056464;28;20735;-66
2022/05/13 01:33:55;;;;;;;5.97;2.50;;;10.60;99.90;;;;;;5052352;28;20237;-65
2022/05/13 01:36:23;;;;;;;12.03;3.10;;;10.60;99.90;;;;;;5055089;28;20188;-65
2022/05/13 01:38:55;;;;;;;13.07;3.20;;;10.60;99.90;;;;;;5051429;28;20205;-65
2022/05/13 01:41:27;;;;;;;12.27;3.60;;;10.60;99.90;;;;;;5051023;28;20185;-65
2022/05/13 01:43:56;;;;;;;12.77;3.10;;;10.60;99.90;;;;;;5052478;28;20220;-65
2022/05/13 01:46:25;;;;;;;12.07;3.07;;;10.50;99.90;;;;;;5052228;28;20207;-65
2022/05/13 01:48:54;;;;;;;7.83;2.80;;;10.50;99.90;;;;;;5047500;28;20204;-65
2022/05/13 01:51:23;;;;;;;10.50;2.90;;;10.50;99.90;;;;;;5052118;28;20201;-65
2022/05/13 01:53:53;;;;;;;12.00;3.20;;;10.40;99.90;;;;;;5051668;28;20192;-65
2022/05/13 01:56:22;;;;;;;10.77;2.90;;;10.40;99.90;;;;;;5051356;28;20192;-65
2022/05/13 01:58:51;;;;;;;9.37;3.13;;;10.30;99.90;;;;;;5049542;28;20224;-65
2022/05/13 02:01:19;;;;;;;10.53;2.93;;;10.40;99.90;;;;;;5050869;28;20231;-64
2022/05/13 02:03:46;;;;;;;12.63;3.00;;;10.30;99.90;;;;;;5055331;28;20275;-65
2022/05/13 02:06:18;;;;;;;13.67;3.93;;;10.30;99.90;;;;;;5043189;28;21088;-65
2022/05/13 02:08:47;;;;;;;10.93;3.10;;;10.30;99.90;;;;;;5050494;28;21053;-65
2022/05/13 02:11:19;;;;;;;8.93;3.13;;;10.30;99.90;;;;;;5051807;28;20197;-65
2022/05/13 02:13:51;;;;;;;16.00;3.10;;;10.30;99.90;;;;;;5052229;28;21376;-65
2022/05/13 02:16:20;;;;;;;11.77;2.90;;;10.30;99.90;;;;;;5050288;28;20596;-65
2022/05/13 02:18:52;;;;;;;11.37;3.20;;;10.30;99.90;;;;;;5054207;28;20201;-65
2022/05/13 02:21:20;;;;;;;10.97;3.50;;;10.30;99.90;;;;;;5046624;28;20768;-65
2022/05/13 02:23:51;;;;;;;11.80;3.10;;;10.20;99.90;;;;;;5046586;28;20228;-65
2022/05/13 02:26:21;;;;;;;12.07;3.30;;;10.20;99.90;;;;;;5051401;28;20215;-65
2022/05/13 02:28:50;;;;;;;13.73;3.67;;;10.20;99.90;;;;;;5045505;28;20212;-65
2022/05/13 02:31:18;;;;;;;10.37;3.53;;;10.10;99.90;;;;;;5042401;28;20201;-65
2022/05/13 02:33:48;;;;;;;8.83;3.27;;;10.10;99.90;;;;;;5050505;28;20240;-65
2022/05/13 02:36:16;;;;;;;9.17;3.30;;;10.10;99.90;;;;;;5046154;28;20544;-65
2022/05/13 02:38:44;;;;;;;7.40;3.57;;;10.10;99.90;;;;;;5044180;28;20209;-65
2022/05/13 02:41:13;;;;;;;13.07;3.60;;;10.10;99.90;;;;;;5047073;28;20197;-64
2022/05/13 02:43:46;;;;;;;15.43;4.00;;;10.10;99.90;;;;;;5045133;28;20213;-64
2022/05/13 02:46:15;;;;;;;18.80;3.77;;;10.10;99.90;;;;;;5054814;28;20555;-65
2022/05/13 02:48:44;;;;;;;11.30;3.70;;;10.20;99.90;;;;;;5049961;28;20204;-65
2022/05/13 02:51:13;;;;;;;16.07;3.40;;;10.20;99.90;;;;;;5048141;28;20189;-65
2022/05/13 02:53:42;;;;;;;15.07;3.50;;;10.10;99.90;;;;;;5042265;28;20189;-65
2022/05/13 02:56:11;;;;;;;11.77;3.50;;;10.10;99.90;;;;;;5050441;28;20197;-65
2022/05/13 02:58:41;;;;;;;11.33;3.50;;;10.10;99.90;;;;;;5046206;28;20296;-64
2022/05/13 03:01:12;;;;;;;20.63;3.90;;;10.10;99.90;;;;;;5056014;28;20258;-64
2022/05/13 03:03:42;;;;;;;14.30;3.90;;;10.10;99.90;;;;;;5047402;28;20568;-65
2022/05/13 03:06:11;;;;;;;13.23;3.40;;;10.10;99.90;;;;;;5051632;28;20287;-65
2022/05/13 03:08:40;;;;;;;9.03;3.47;;;10.10;99.90;;;;;;5072769;28;20730;-65
2022/05/13 03:11:09;;;;;;;11.40;4.23;;;10.10;99.90;;;;;;5050523;28;20972;-65
2022/05/13 03:13:38;;;;;;;15.00;4.10;;;10.10;99.90;;;;;;5053418;28;20242;-65
2022/05/13 03:16:08;;;;;;;14.43;3.63;;;10.20;99.90;;;;;;5078346;28;20718;-65
2022/05/13 03:18:39;;;;;;;14.00;3.37;;;10.30;99.90;;;;;;5043079;28;20710;-65
2022/05/13 03:21:09;;;;;;;13.67;4.10;;;10.30;99.90;;;;;;5049454;28;20212;-65
2022/05/13 03:23:42;;;;;;;13.13;3.53;;;10.40;99.90;;;;;;5080411;28;20251;-65
2022/05/13 03:26:11;;;;;;;16.40;3.93;;;10.40;99.90;;;;;;5050979;28;20219;-65
2022/05/13 03:28:40;;;;;;;10.83;3.53;;;10.50;99.90;;;;;;5044217;28;20197;-65
2022/05/13 03:31:08;;;;;;;11.33;3.67;;;10.50;99.90;;;;;;5048471;28;20255;-65
2022/05/13 03:33:41;;;;;;;19.07;4.57;;;10.50;99.90;;;;;;5058501;28;20236;-65
2022/05/13 03:36:11;;;;;;;14.17;3.93;;;10.60;99.90;;;;;;5049344;28;20195;-65
2022/05/13 03:38:41;;;;;;;16.00;4.17;;;10.60;99.90;;;;;;5048141;28;20287;-66
2022/05/13 03:41:11;;;;;;;13.27;3.93;;;10.60;99.90;;;;;;5046060;28;20193;-65
2022/05/13 03:43:40;;;;;;;14.90;4.20;;;10.70;99.90;;;;;;5046471;28;20224;-66
2022/05/13 03:46:08;;;;;;;13.57;3.77;;;10.70;99.90;;;;;;5049863;28;20197;-65
2022/05/13 03:48:37;;;;;;;16.07;3.90;;;10.70;99.90;;;;;;5046584;28;20205;-65
2022/05/13 03:51:07;;;;;;;11.80;3.50;;;10.70;99.90;;;;;;5053849;28;20193;-65
2022/05/13 03:53:35;;;;;;;11.53;3.60;;;10.70;99.90;;;;;;5047399;28;20201;-65
2022/05/13 03:56:04;;;;;;;13.33;3.40;;;10.80;99.90;;;;;;5047876;28;20262;-65
2022/05/13 03:58:33;;;;;;;13.70;3.93;;;10.80;99.90;;;;;;5075815;28;20236;-65
2022/05/13 04:01:02;;;;;;;11.37;3.77;;;10.70;99.90;;;;;;5044699;28;20212;-65
2022/05/13 04:03:30;;;;;;;11.50;4.13;;;10.70;99.90;;;;;;5054094;28;20656;-65
2022/05/13 04:08:58;;;;;;;13.67;4.00;;;10.60;99.90;;;;;;5062966;28;20283;-65
2022/05/13 04:11:26;;;;;;;19.83;4.47;;;10.60;99.90;;;;;;5045318;28;20666;-65
2022/05/13 04:16:41;;;;;;;15.33;4.13;;;10.60;99.90;;;;;;5047924;28;20197;-65
2022/05/13 04:19:09;;;;;;;27.20;5.40;;;10.60;99.90;;;;;;5052369;28;20311;-65
2022/05/13 04:21:40;;;;;;;14.67;4.87;;;10.60;99.90;;;;;;5049395;28;20200;-65
2022/05/13 04:24:12;;;;;;;14.50;5.17;;;10.50;99.90;;;;;;5049519;28;20322;-65
2022/05/13 04:26:41;;;;;;;13.70;4.70;;;10.50;99.90;;;;;;5052089;28;20315;-65
2022/05/13 04:29:09;;;;;;;18.37;4.67;;;10.50;99.90;;;;;;5055026;28;20203;-66
2022/05/13 04:31:40;;;;;;;18.03;5.40;;;10.60;99.90;;;;;;5055269;28;20185;-66
2022/05/13 04:34:09;;;;;;;18.87;5.30;;;10.50;99.90;;;;;;5053613;28;20572;-65
2022/05/13 04:36:38;;;;;;;16.20;4.77;;;10.50;99.90;;;;;;5052287;28;20196;-65
2022/05/13 04:39:06;;;;;;;15.43;4.43;;;10.50;99.90;;;;;;5051322;28;20188;-65
2022/05/13 04:44:23;;;;;;;14.53;4.97;;;10.50;99.90;;;;;;5050816;28;20687;-65
2022/05/13 04:46:52;;;;;;;17.50;5.17;;;10.50;99.90;;;;;;5078926;28;20293;-65
2022/05/13 04:49:20;;;;;;;13.90;4.83;;;10.60;99.90;;;;;;5049516;28;20201;-65
2022/05/13 04:51:54;;;;;;;14.63;4.60;;;10.60;99.90;;;;;;5051048;28;20211;-65
2022/05/13 04:54:23;;;;;;;26.37;5.93;;;10.50;99.90;;;;;;5041613;28;20194;-65
2022/05/13 04:56:52;;;;;;;16.57;4.57;;;10.60;99.90;;;;;;5049274;28;20263;-65
2022/05/13 04:59:21;;;;;;;21.53;5.83;;;10.60;99.90;;;;;;5049003;28;20231;-66
2022/05/13 05:01:49;;;;;;;27.77;5.87;;;10.60;99.90;;;;;;5051446;28;20209;-65
2022/05/13 05:04:18;;;;;;;11.43;4.93;;;10.60;99.90;;;;;;5042165;28;20218;-66
2022/05/13 05:06:46;;;;;;;18.70;5.63;;;10.70;99.90;;;;;;5053831;28;20199;-65
2022/05/13 05:09:15;;;;;;;19.20;5.43;;;10.70;99.90;;;;;;5050267;28;20225;-65
2022/05/13 05:11:44;;;;;;;22.57;5.50;;;10.70;99.90;;;;;;5051111;28;20201;-65
2022/05/13 05:14:13;;;;;;;18.33;5.37;;;10.80;99.90;;;;;;5055085;28;20205;-65
2022/05/13 05:16:42;;;;;;;24.90;6.07;;;10.80;99.90;;;;;;5054341;28;20185;-66
2022/05/13 05:19:12;;;;;;;16.43;4.77;;;10.80;99.90;;;;;;5051082;28;20262;-66
2022/05/13 05:21:40;;;;;;;13.37;4.90;;;10.90;99.90;;;;;;5050725;28;20896;-66
2022/05/13 05:24:09;;;;;;;16.20;5.50;;;10.90;99.90;;;;;;5048614;28;20208;-65
2022/05/13 05:26:38;;;;;;;14.37;5.20;;;11.00;99.90;;;;;;5046665;28;20599;-66
2022/05/13 05:29:06;;;;;;;19.00;5.93;;;11.00;99.90;;;;;;5045614;28;20619;-65
2022/05/13 05:31:36;;;;;;;15.47;5.20;;;11.10;99.90;;;;;;5047528;28;20189;-65
2022/05/13 05:34:05;;;;;;;14.93;5.00;;;11.10;99.90;;;;;;5053684;28;20687;-66
2022/05/13 05:36:34;;;;;;;16.37;5.43;;;11.10;99.90;;;;;;5044219;28;20189;-66
2022/05/13 05:39:03;;;;;;;15.70;4.57;;;11.20;99.90;;;;;;5045403;28;20197;-66
2022/05/13 05:41:31;;;;;;;15.63;5.13;;;11.30;99.90;;;;;;5049451;28;20279;-65
2022/05/13 05:43:59;;;;;;;21.13;5.10;;;11.30;99.90;;;;;;5053049;28;20202;-65
2022/05/13 05:46:28;;;;;;;21.00;5.40;;;11.40;99.90;;;;;;5050166;28;20200;-66
2022/05/13 05:48:58;;;;;;;15.20;5.07;;;11.50;99.90;;;;;;5047561;28;20204;-66
2022/05/13 05:51:26;;;;;;;13.90;5.10;;;11.50;99.90;;;;;;5049531;28;20220;-65
2022/05/13 05:59:26;;;;;;;16.37;4.77;;;11.60;99.90;;;;;;5049389;28;20201;-67
2022/05/13 06:01:54;;;;;;;19.30;5.07;;;11.70;99.90;;;;;;5047164;28;20197;-65
2022/05/13 06:04:24;;;;;;;19.80;4.60;;;11.80;99.90;;;;;;5049423;28;20258;-66
2022/05/13 06:06:52;;;;;;;18.03;5.10;;;11.90;99.90;;;;;;5051284;28;20758;-65
2022/05/13 06:09:21;;;;;;;11.60;4.50;;;11.90;99.90;;;;;;5048306;28;20284;-65
2022/05/13 06:11:49;;;;;;;16.73;4.93;;;12.00;99.90;;;;;;5048633;28;20232;-65
2022/05/13 06:14:17;;;;;;;19.47;4.83;;;12.00;99.90;;;;;;5053624;28;20220;-65
2022/05/13 06:16:46;;;;;;;21.23;4.97;;;12.20;99.90;;;;;;5048941;28;20211;-65
2022/05/13 06:19:15;;;;;;;18.83;4.40;;;12.20;99.90;;;;;;5046116;28;20507;-65
2022/05/13 06:21:45;;;;;;;16.63;5.07;;;12.20;99.90;;;;;;5037773;28;20189;-65
2022/05/13 06:24:14;;;;;;;18.13;4.07;;;12.30;99.90;;;;;;5047913;28;20251;-65
2022/05/13 06:26:42;;;;;;;18.23;4.80;;;12.50;99.90;;;;;;5049812;28;20209;-65
2022/05/13 06:29:11;;;;;;;12.00;4.30;;;12.60;99.90;;;;;;5049707;28;20192;-65
2022/05/13 06:31:39;;;;;;;16.53;4.67;;;12.60;99.90;;;;;;5059664;28;20192;-65
2022/05/13 06:34:07;;;;;;;13.13;4.40;;;12.60;99.90;;;;;;5059636;28;20559;-65
2022/05/13 06:36:36;;;;;;;10.67;4.00;;;12.70;99.90;;;;;;5056536;28;20189;-65
2022/05/13 06:39:07;;;;;;;18.40;4.80;;;12.70;99.90;;;;;;5057874;28;20627;-64
2022/05/13 06:41:37;;;;;;;20.40;4.77;;;12.80;99.90;;;;;;5083545;28;20216;-65
2022/05/13 06:44:06;;;;;;;14.00;4.77;;;12.80;99.90;;;;;;5054020;28;20197;-65
2022/05/13 06:46:35;;;;;;;16.03;4.17;;;12.90;99.90;;;;;;5046971;28;20213;-65
2022/05/13 06:49:04;;;;;;;11.37;3.77;;;13.00;99.90;;;;;;5049701;28;20490;-65
2022/05/13 06:51:34;;;;;;;10.77;4.00;;;13.10;99.90;;;;;;5053997;28;20197;-65
2022/05/13 06:54:04;;;;;;;11.50;3.77;;;13.20;99.90;;;;;;5043713;28;20197;-65
2022/05/13 06:56:35;;;;;;;11.53;3.60;;;13.30;99.90;;;;;;5049734;28;20193;-65
2022/05/13 06:59:04;;;;;;;12.90;3.57;;;13.40;99.90;;;;;;5052907;28;20184;-65
2022/05/13 07:01:40;;;;;;;9.20;3.43;;;13.50;99.90;;;;;;5056440;28;20196;-65
2022/05/13 07:04:08;;;;;;;12.20;4.00;;;13.70;99.90;;;;;;5052360;28;20204;-65
2022/05/13 07:06:37;;;;;;;11.43;3.70;;;13.70;99.90;;;;;;5048489;28;20270;-65
2022/05/13 07:09:06;;;;;;;18.53;3.90;;;13.70;99.90;;;;;;5050444;28;20203;-65
2022/05/13 07:11:36;;;;;;;10.23;3.77;;;13.80;99.90;;;;;;5048707;28;20204;-65
2022/05/13 07:14:05;;;;;;;14.90;3.97;;;13.80;99.90;;;;;;5051266;28;20212;-65
2022/05/13 07:16:33;;;;;;;14.60;3.80;;;13.90;99.90;;;;;;5047532;28;20200;-65
2022/05/13 07:19:05;;;;;;;11.30;3.33;;;14.00;99.90;;;;;;5055143;28;20197;-65
2022/05/13 07:21:34;;;;;;;10.27;3.20;;;14.20;99.90;;;;;;5050519;28;20283;-65
2022/05/13 07:24:03;;;;;;;9.90;2.90;;;14.30;99.90;;;;;;5051383;28;20268;-64
2022/05/13 07:26:31;;;;;;;8.73;3.00;;;14.30;99.90;;;;;;5045973;28;20216;-64
2022/05/13 07:29:01;;;;;;;13.37;3.30;;;14.40;99.90;;;;;;5064428;28;20201;-65
2022/05/13 07:31:30;;;;;;;11.00;3.10;;;14.40;99.90;;;;;;5045222;28;20200;-65
2022/05/13 07:33:58;;;;;;;13.93;3.47;;;14.60;99.90;;;;;;5076694;28;20236;-65
2022/05/13 07:36:27;;;;;;;23.47;3.50;;;14.70;99.90;;;;;;5055874;28;20181;-65
2022/05/13 07:41:41;;;;;;;10.63;2.77;;;15.00;99.90;;;;;;5018520;28;20627;-65
2022/05/13 07:44:11;;;;;;;9.90;3.13;;;15.10;99.90;;;;;;5051361;28;20662;-65
2022/05/13 07:46:40;;;;;;;9.67;3.23;;;15.20;99.90;;;;;;5043596;28;20614;-65
2022/05/13 07:49:09;;;;;;;8.70;2.80;;;15.10;99.90;;;;;;5040568;28;20201;-65
2022/05/13 07:51:37;;;;;;;8.93;2.63;;;15.30;99.90;;;;;;5047478;28;20757;-65
2022/05/13 07:54:05;;;;;;;6.47;2.53;;;15.50;99.90;;;;;;5055489;28;20211;-65
2022/05/13 07:56:34;;;;;;;9.33;2.43;;;15.80;99.90;;;;;;5053555;28;20691;-65
2022/05/13 07:59:02;;;;;;;4.27;2.20;;;16.30;99.90;;;;;;5087803;28;20192;-65
2022/05/13 08:01:32;;;;;;;9.70;2.37;;;16.60;99.90;;;;;;5060628;28;20211;-65
2022/05/13 08:04:01;;;;;;;10.53;2.70;;;16.50;99.90;;;;;;5055559;28;20235;-65
2022/05/13 08:06:29;;;;;;;7.40;2.70;;;16.60;99.90;;;;;;5054160;28;20217;-65
2022/05/13 08:08:58;;;;;;;9.03;2.43;;;16.70;99.90;;;;;;5055308;28;20211;-65
2022/05/13 08:11:29;;;;;;;10.47;2.47;;;16.70;99.90;;;;;;5052935;28;20193;-65
2022/05/13 08:13:58;;;;;;;8.33;3.10;;;16.80;99.90;;;;;;5058976;28;20215;-66
2022/05/13 08:16:29;;;;;;;16.40;3.07;;;16.70;99.90;;;;;;5063604;28;20189;-65
2022/05/13 08:19:00;;;;;;;10.00;2.37;;;16.80;99.90;;;;;;5052977;28;20648;-65
2022/05/13 08:21:28;;;;;;;7.40;2.20;;;17.00;99.90;;;;;;5054392;28;20323;-65
2022/05/13 08:23:58;;;;;;;8.53;2.20;;;17.30;99.90;;;;;;5056942;28;20292;-65
2022/05/13 08:26:27;;;;;;;27.47;3.90;;;17.30;99.90;;;;;;5049130;28;20204;-65
2022/05/13 08:28:55;;;;;;;8.07;2.30;;;17.40;99.90;;;;;;5053332;28;20229;-66
2022/05/13 08:31:24;;;;;;;7.67;2.60;;;17.80;99.90;;;;;;5048408;28;20224;-65
2022/05/13 08:33:53;;;;;;;2.43;2.10;;;17.90;99.90;;;;;;5049882;28;20244;-65
2022/05/13 08:36:25;;;;;;;14.50;2.90;;;17.80;99.90;;;;;;5050721;28;20197;-66
2022/05/13 08:38:53;;;;;;;5.17;2.33;;;17.80;99.90;;;;;;5053795;28;20189;-65
2022/05/13 08:41:35;;;;;;;6.73;2.27;;;17.70;99.90;;;;;;5044104;28;20595;-66
2022/05/13 08:44:07;;;;;;;13.87;2.57;;;17.60;99.90;;;;;;5053631;28;20189;-65
2022/05/13 08:46:40;;;;;;;7.43;2.33;;;17.50;99.90;;;;;;5056170;28;20212;-65
2022/05/13 08:49:36;;;;;;;6.17;2.30;;;17.30;99.90;;;;;;5045619;28;20193;-65
2022/05/13 08:55:02;;;;;;;20.67;2.30;;;17.50;99.90;;;;;;5051128;28;20277;-66
2022/05/13 08:57:36;;;;;;;4.83;2.00;;;17.70;99.90;;;;;;5052087;28;20197;-66
2022/05/13 09:00:10;;;;;;;6.93;2.10;;;17.50;99.90;;;;;;5052171;28;20673;-65
2022/05/13 09:02:41;;;;;;;9.00;2.20;;;17.40;99.90;;;;;;5080985;28;20271;-65
2022/05/13 09:05:22;;;;;;;7.33;2.63;;;17.10;99.90;;;;;;5049023;28;20204;-65
2022/05/13 09:07:55;;;;;;;5.53;2.27;;;17.60;99.90;;;;;;5044955;28;20224;-66
2022/05/13 09:10:27;;;;;;;8.80;1.90;;;18.00;99.90;;;;;;5051229;28;20196;-65
2022/05/13 09:13:05;;;;;;;6.80;2.10;;;18.10;99.90;;;;;;5044553;28;20279;-65
2022/05/13 09:15:39;;;;;;;5.63;2.30;;;18.10;99.90;;;;;;5043727;28;20197;-66
2022/05/13 09:18:14;;;;;;;9.30;2.20;;;17.90;99.90;;;;;;5049776;28;20199;-65
2022/05/13 09:20:50;;;;;;;7.00;2.10;;;17.60;99.90;;;;;;5050381;28;20287;-65
2022/05/13 09:23:21;;;;;;;4.67;2.00;;;17.20;99.90;;;;;;5050717;28;20201;-65
2022/05/13 09:26:08;;;;;;;3.83;2.07;;;17.10;99.90;;;;;;5045640;28;20196;-65
2022/05/13 09:28:58;;;;;;;7.33;2.60;;;17.60;99.90;;;;;;5051461;28;20193;-65
2022/05/13 09:31:29;;;;;;;4.07;2.40;;;17.70;99.90;;;;;;5051606;28;20200;-64
2022/05/13 09:34:32;;;;;;;6.43;2.30;;;17.60;99.90;;;;;;5057608;28;20242;-65
2022/05/13 09:37:07;;;;;;;8.23;2.40;;;17.40;99.90;;;;;;5032838;28;20258;-65
2022/05/13 09:39:40;;;;;;;6.23;3.27;;;17.40;99.90;;;;;;5050885;28;20200;-65
2022/05/13 09:42:26;;;;;;;6.87;2.00;;;18.10;99.90;;;;;;5047940;28;20256;-65
2022/05/13 09:45:17;;;;;;;10.53;2.50;;;19.20;99.90;;;;;;5048773;28;20204;-65
2022/05/13 09:47:58;;;;;;;5.73;2.07;;;19.30;99.90;;;;;;5052130;28;20575;-65
2022/05/13 09:50:38;;;;;;;9.30;2.50;;;19.60;99.90;;;;;;5041497;28;20274;-65
2022/05/13 09:53:11;;;;;;;10.37;2.33;;;19.60;99.90;;;;;;5047530;28;20211;-65
2022/05/13 09:55:43;;;;;;;8.87;2.67;;;19.50;99.90;;;;;;5052524;28;20280;-65
2022/05/13 09:58:19;;;;;;;7.67;3.43;;;18.80;99.90;;;;;;5050721;28;20268;-66
2022/05/13 10:00:54;;;;;;;10.47;3.63;;;18.30;99.90;;;;;;5044376;28;20277;-64
2022/05/13 10:03:24;;;;;;;3.83;2.53;;;18.20;99.90;;;;;;5046216;28;20255;-65
2022/05/13 10:06:02;;;;;;;6.60;2.33;;;18.30;99.90;;;;;;5040706;28;20193;-65
2022/05/13 10:08:38;;;;;;;7.27;2.40;;;18.30;99.90;;;;;;5078090;28;20216;-65
2022/05/13 10:14:02;;;;;;;3.50;2.17;;;17.90;99.90;;;;;;5050576;28;20195;-65
2022/05/13 10:16:35;;;;;;;7.10;2.37;;;17.70;99.90;;;;;;5044628;28;20284;-65
2022/05/13 10:19:10;;;;;;;5.70;2.07;;;17.70;99.90;;;;;;5077303;28;20196;-64
2022/05/13 10:21:44;;;;;;;6.80;2.07;;;18.10;99.90;;;;;;5050427;28;20208;-65
2022/05/13 10:24:31;;;;;;;8.10;2.13;;;18.20;99.90;;;;;;5053924;28;20275;-64
2022/05/13 10:27:03;;;;;;;7.27;2.17;;;18.10;99.90;;;;;;5049234;28;20341;-65
2022/05/13 10:29:37;;;;;;;7.30;2.30;;;17.80;99.90;;;;;;5046260;28;20222;-65
2022/05/13 10:32:13;;;;;;;7.33;1.90;;;17.70;99.90;;;;;;5078513;28;20198;-65
2022/05/13 10:34:50;;;;;;;6.63;2.30;;;17.80;99.90;;;;;;5045158;28;20985;-65
2022/05/13 10:37:26;;;;;;;4.27;1.97;;;17.90;99.90;;;;;;5047365;28;20203;-65
2022/05/13 10:39:56;;;;;;;7.60;1.93;;;18.10;99.90;;;;;;5043671;28;20657;-65
2022/05/13 10:42:32;;;;;;;5.30;1.97;;;18.10;99.90;;;;;;5042212;28;20201;-65
2022/05/13 10:45:07;;;;;;;4.47;1.90;;;18.10;99.90;;;;;;5039246;28;20197;-66
2022/05/13 10:47:42;;;;;;;6.87;2.23;;;18.30;99.90;;;;;;5049618;28;20262;-65
2022/05/13 10:50:16;;;;;;;4.33;1.90;;;18.60;99.90;;;;;;5044763;28;20193;-68
2022/05/13 10:52:54;;;;;;;6.50;1.83;;;18.70;99.90;;;;;;5047233;28;20208;-65
2022/05/13 10:55:36;;;;;;;6.13;2.07;;;18.60;99.90;;;;;;5049664;28;20219;-65
2022/05/13 10:58:17;;;;;;;4.87;1.87;;;18.50;99.90;;;;;;5047048;28;20204;-64
2022/05/13 11:00:51;;;;;;;5.53;2.37;;;18.30;99.90;;;;;;5043530;28;20286;-65
2022/05/13 11:03:32;;;;;;;7.77;2.10;;;18.40;99.90;;;;;;5047363;28;20200;-65
2022/05/13 11:06:20;;;;;;;4.60;2.37;;;18.40;99.90;;;;;;5046522;28;20208;-68
2022/05/13 11:08:54;;;;;;;6.40;1.83;;;18.30;99.90;;;;;;5046277;28;20252;-65
2022/05/13 11:11:35;;;;;;;5.67;1.80;;;18.20;99.90;;;;;;5045423;28;20355;-65
2022/05/13 11:14:16;;;;;;;9.43;2.03;;;18.10;99.90;;;;;;5053616;28;20643;-65
2022/05/13 11:16:52;;;;;;;5.27;2.00;;;18.10;99.90;;;;;;5046107;28;20196;-65
2022/05/13 11:19:30;;;;;;;7.20;1.90;;;18.30;99.90;;;;;;5049306;28;20212;-65
2022/05/13 11:22:18;;;;;;;2.67;1.63;;;18.50;99.90;;;;;;5031509;28;20197;-66
2022/05/13 11:27:57;;;;;;;4.37;2.27;;;19.30;99.90;;;;;;5046627;28;20208;-64
2022/05/13 11:30:42;;;;;;;5.10;1.63;;;19.30;99.90;;;;;;5044829;28;20667;-65
2022/05/13 11:33:22;;;;;;;2.97;1.70;;;19.20;99.90;;;;;;5055390;28;20779;-65
2022/05/13 11:36:12;;;;;;;8.27;1.90;;;19.10;99.90;;;;;;5049088;28;20682;-64
2022/05/13 11:39:06;;;;;;;7.10;1.83;;;19.10;99.90;;;;;;5048417;28;20213;-65
2022/05/13 11:41:46;;;;;;;5.70;2.00;;;19.10;99.90;;;;;;5044744;28;20300;-64
2022/05/13 11:44:43;;;;;;;2.80;1.50;;;18.80;99.90;;;;;;5053950;28;20196;-66
2022/05/13 11:47:18;;;;;;;3.43;1.70;;;19.00;99.90;;;;;;5040912;28;20200;-65
2022/05/13 11:49:47;;;;;;;5.43;1.70;;;19.10;99.90;;;;;;5082189;28;20199;-65
2022/05/13 11:52:49;;;;;;;10.07;1.90;;;19.30;99.90;;;;;;5038520;28;20207;-65
2022/05/13 11:55:20;;;;;;;3.03;1.57;;;19.50;99.90;;;;;;5053872;28;20188;-65
2022/05/13 11:57:50;;;;;;;7.87;1.87;;;19.80;99.90;;;;;;5050591;28;20197;-65
2022/05/13 12:00:37;;;;;;;7.27;1.70;;;19.90;99.90;;;;;;5049880;28;20279;-65
2022/05/13 12:03:17;;;;;;;4.00;1.80;;;19.60;99.90;;;;;;5048627;28;20219;-66
2022/05/13 12:06:02;;;;;;;5.10;1.97;;;19.90;99.90;;;;;;5050317;28;20185;-65
2022/05/13 12:08:39;;;;;;;6.00;1.73;;;20.00;99.90;;;;;;5043400;28;20213;-64
2022/05/13 12:11:33;;;;;;;6.03;2.03;;;19.90;99.90;;;;;;5047483;28;20192;-65
2022/05/13 12:14:11;;;;;;;5.10;1.80;;;19.80;99.90;;;;;;5044615;28;20283;-65
2022/05/13 12:16:46;;;;;;;4.30;1.80;;;19.90;99.90;;;;;;5039840;28;20279;-65
2022/05/13 12:19:35;;;;;;;7.27;1.70;;;20.10;99.90;;;;;;5049915;28;20228;-65
2022/05/13 12:22:10;;;;;;;6.00;1.80;;;20.40;99.90;;;;;;5044591;28;20295;-65
2022/05/13 12:24:57;;;;;;;3.77;1.80;;;20.30;99.90;;;;;;5055485;28;20211;-65
2022/05/13 12:27:35;;;;;;;7.67;2.03;;;20.30;99.90;;;;;;5080866;28;20200;-65
2022/05/13 12:30:28;;;;;;;5.27;1.97;;;20.50;99.90;;;;;;5077080;28;20208;-65
2022/05/13 12:32:58;;;;;;;7.23;2.30;;;20.40;99.90;;;;;;5074224;28;20239;-65
2022/05/13 12:38:27;;;;;;;4.47;1.80;;;20.30;99.90;;;;;;5051809;28;20185;-64
2022/05/13 12:41:09;;;;;;;10.83;2.40;;;20.30;99.90;;;;;;5051063;28;20197;-65
2022/05/13 12:43:53;;;;;;;6.60;1.77;;;20.20;99.90;;;;;;5047683;28;20278;-65
2022/05/13 12:46:42;;;;;;;4.70;1.90;;;20.40;99.90;;;;;;5048460;28;20675;-65
2022/05/13 12:49:13;;;;;;;3.93;1.90;;;20.80;99.90;;;;;;5050794;28;20240;-66
2022/05/13 12:52:01;;;;;;;3.23;1.67;;;20.90;99.90;;;;;;5049197;28;20581;-65
2022/05/13 12:54:34;;;;;;;3.77;1.70;;;20.80;99.90;;;;;;5054291;28;20279;-65
2022/05/13 12:57:11;;;;;;;4.47;2.07;;;20.80;99.90;;;;;;5045376;28;20219;-65
2022/05/13 13:00:02;;;;;;;2.50;1.53;;;20.90;99.90;;;;;;5050704;28;20850;-66
2022/05/13 13:02:34;;;;;;;3.33;1.53;;;21.10;99.90;;;;;;5044917;28;20201;-65
2022/05/13 13:05:07;;;;;;;4.57;1.70;;;21.00;99.90;;;;;;5047262;28;20189;-67
2022/05/13 13:07:38;;;;;;;9.50;2.00;;;21.00;99.90;;;;;;5086203;28;20254;-67
2022/05/13 13:10:10;;;;;;;35.63;6.67;;;21.10;99.90;;;;;;5055081;28;20295;-66
2022/05/13 13:12:42;;;;;;;22.87;6.00;;;21.20;99.90;;;;;;5056509;28;20633;-66
2022/05/13 13:15:36;;;;;;;5.80;2.30;;;21.00;99.90;;;;;;5055227;28;20552;-66
2022/05/13 13:18:08;;;;;;;4.93;1.70;;;21.10;99.90;;;;;;5048476;28;20226;-66
2022/05/13 13:20:49;;;;;;;14.33;3.87;;;21.10;99.90;;;;;;5055071;28;20643;-66
2022/05/13 13:23:23;;;;;;;11.50;2.87;;;21.10;99.90;;;;;;5086743;28;20292;-66
2022/05/13 13:25:53;;;;;;;10.80;1.93;;;21.20;99.90;;;;;;5087346;28;20287;-66
2022/05/13 13:28:25;;;;;;;4.70;1.97;;;21.50;99.90;;;;;;5047953;28;20197;-58
2022/05/13 13:30:57;;;;;;;6.90;2.13;;;21.50;99.90;;;;;;5088581;28;20188;-59
2022/05/13 13:33:29;;;;;;;3.17;1.60;;;21.70;99.90;;;;;;5052853;28;20232;-61
2022/05/13 13:36:06;;;;;;;9.93;1.90;;;21.80;99.90;;;;;;5045735;28;20622;-61